アティラウ の空港の天気 - METARとTAF

Atyrau Airport ( UATG / GUW ) - カザフスタン Atyrau
飛行場実況気象(Metar)
観測時間01/18 14:30 ORAT (01/18 09:30 UTC)
風向・風速東 8m/s
視程10km以上
天気現象
なし
気温-12℃
湿度72%
気圧1022hPa
METARUATG 180930Z 09008MPS CAVOK M12/M16 Q1022 R14/82//60 NOSIG RMK QFE769/1025
過去の天気等 Google飛行場航空写真 Wunderground天気予報

過去48時間のMETAR

飛行場予報(TAF)
発表時間: 1/18 10:01 ORAT (1/18 05:01 UTC)
予報対象時間: 18日11時 ORAT ~ 19日11時 ORAT
風向・風速東南東 8m/s 瞬間風速 13m/s
視程10km以上
全天の8割程度の雲 雲底高度 610m
18日20時 ORAT ~ 18日21時 ORAT に徐々に
風向・風速東南東 7m/s
視程3,000m
天気現象もや
全天の8割程度の雲 雲底高度 300m
TAF UATG 180501Z 1806/1906 11008G13MPS 9999 BKN020 TXM08/1811Z TNM19/1903Z
BECMG 1815/1816 11007MPS 3000 BR BKN010